Wednesday, August 15, 2018, 4:50 AM GMT
Back to Local

CYHZ, Halifax International Airport

Location: , , Canada Lat: 44.883
Local Time: 4:50 AM GMT ( 4:50 GMT) Lon: -63.5
Time Zone: GMT Elev: 475 ft

Show me the last for .
Show Decoded

2018-08-15 04:34 METAR CYHZ 150434Z 20007KT 3/4SM R23/P6000FT/D R14/P6000FT/D BR VV001 21/21
                 A2992 RMK FG8 SLP131 DENSITY ALT 1300FT =
2018-08-15 04:00 METAR CYHZ 150400Z 21008KT 1 3/4SM BR VV001 21/21 A2992 RMK FG8 SLP131 DENSITY
                 ALT 1400FT =
2018-08-15 03:39 METAR CYHZ 150339Z 19006KT 5/8SM R23/5000VP6000FT/D R14/P6000FT/D BR VV001 21/21
                 A2992 RMK FG8 SLP131 DENSITY ALT 1400FT
2018-08-15 03:27 METAR CYHZ 150327Z 18009KT 1 1/2SM BR VV001 21/21 A2992 RMK FG8 SLP131 DENSITY
                 ALT 1400FT =
2018-08-15 03:11 METAR CYHZ 150311Z 18005KT 1SM R23/3500V5500FT/U R14/P6000FT/D BR VV001 21/21
                 A2992 RMK FG8 SLP132 DENSITY ALT 1400FT =
2018-08-15 03:00 METAR CYHZ 150300Z 18007KT 3/8SM R23/2600V4000FT/N R14/4500VP6000FT/U FG VV001
                 21/21 A2992 RMK FG8 SLP133 DENSITY ALT 1400FT =
2018-08-15 02:00 METAR CYHZ 150200Z 17006KT 1/4SM R23/2600FT/N R14/2600FT/N FG VV001 21/21 A2993
                 RMK FG8 SLP137 DENSITY ALT 1300FT =
2018-08-15 01:00 METAR CYHZ 150100Z 18008KT 1/4SM R23/2600FT/N R14/2200FT/N FG VV001 21/21 A2994
                 RMK FG8 SLP138 DENSITY ALT 1300FT =
2018-08-15 00:00 METAR CYHZ 150000Z CCA 16006KT 1/4SM R23/2400FT/N R14/3000FT/N FG VV001 21/21
                 A2994 RMK FG8 SLP139 DENSITY ALT 1300FT =
2018-08-14 23:06 METAR CYHZ 142306Z 16007KT 3/8SM R23/5500VP6000FT/D R14/P6000FT/U FG VV001 21/21
                 A2993 RMK FG8 SLP138 DENSITY ALT 1300FT =
2018-08-14 23:00 METAR CYHZ 142300Z 16007KT 3/4SM R23/P6000FT/U R14/P6000FT/U -DZ BR OVC002 21/21
                 A2993 RMK ST8 SLP138 DENSITY ALT 1300FT =
2018-08-14 22:26 METAR CYHZ 142226Z 16009KT 5/8SM R23/P6000FT/U R14/P6000FT/N BR VV001 21/21
                 A2994 RMK FG8 SLP140 DENSITY ALT 1300FT =
2018-08-14 22:00 METAR CYHZ 142200Z 16008G15KT 1 1/4SM -DZ BR OVC002 21/21 A2995 RMK ST8 SLP143
                 DENSITY ALT 1300FT =
2018-08-14 21:45 METAR CYHZ 142145Z 15009KT 1SM R23/P6000FT/N R14/P6000FT/N -SHRA BR FEW002 21/21
                 A2995 RMK ST1 CVCTV CLD EMBD SLP143 DENSITY ALT 1300FT =
2018-08-14 21:13 METAR CYHZ 142113Z 16009KT 1 1/2SM -DZ BR OVC002 21/21 A2995 RMK ST8 SLP144
                 DENSITY ALT 1300FT =
2018-08-14 21:00 METAR CYHZ 142100Z 16010KT 2SM BR OVC002 21/21 A2995 RMK ST8 SLP144 DENSITY ALT
                 1300FT =
2018-08-14 20:35 METAR CYHZ 142035Z 16008KT 5SM BR OVC003 21/21 A2996 RMK ST8 TCU EMBD SLP146
                 DENSITY ALT 1300FT =
2018-08-14 20:00 METAR CYHZ 142000Z 16008KT 2SM R14/5000VP6000FT/U -SHRA BR SCT004 OVC020TCU
                 21/21 A2997 RMK ST4TCU4 SLP150 DENSITY ALT 1300FT =
2018-08-14 19:34 METAR CYHZ 141934Z 15010KT 1 1/2SM R14/5000VP6000FT/U -SHRA BR BKN008 OVC020TCU
                 21/21 A2998 RMK SF6TCU2 SLP152 DENSITY ALT 1300FT =
2018-08-14 19:07 METAR CYHZ 141907Z 15009KT 3SM R23/5000VP6000FT/U -SHRA BR FEW010 OVC018 22/21
                 A2998 RMK SF2CU6 TCU EMBD SLP155 DENSITY ALT 1300FT =
2018-08-14 19:00 METAR CYHZ 141900Z 15008KT 2SM R23/4500VP6000FT/D R14/4500VP6000FT/U -SHRA BR
                 FEW004 BKN010 OVC018 22/21 A2999 RMK SF2SC3CU3 TCU EMBD SLP156 DENSITY ALT
                 1300FT =
2018-08-14 18:52 METAR CYHZ 141852Z 17006KT 2SM -SHRA BR BKN010 OVC018 22/21 A2999 RMK SF5CU3
                 SLP157 DENSITY ALT 1300FT =
2018-08-14 18:49 METAR CYHZ 141849Z 18007KT 10SM -SHRA BKN010 OVC022 22/21 A2999 RMK SC5CU3
                 SLP157 DENSITY ALT 1400FT =
2018-08-14 18:32 METAR CYHZ 141832Z 15011KT 15SM -SHRA SCT015 OVC025 23/21 A2999 RMK SC3CU5
                 SLP156 DENSITY ALT 1500FT =
2018-08-14 18:00 METAR CYHZ 141800Z 15010KT 15SM VCSH BKN018 OVC027 23/21 A3000 RMK CU5SC3 SLP159
                 DENSITY ALT 1500FT =
2018-08-14 17:00 METAR CYHZ 141700Z 17011KT 15SM BKN018 BKN048 25/21 A3000 RMK CU5SC2 SLP162
                 DENSITY ALT 1600FT =
2018-08-14 16:00 METAR CYHZ 141600Z 17009KT 15SM OVC018 24/21 A3001 RMK SC8 CU EMBD SLP164
                 DENSITY ALT 1600FT =
2018-08-14 15:00 METAR CYHZ 141500Z 17010KT 15SM BKN016 OVC024 24/21 A3003 RMK CU6SC2 SLP170
                 DENSITY ALT 1500FT =
2018-08-14 14:00 METAR CYHZ 141400Z 17009G15KT 15SM SCT015 SCT070 BKN260 24/20 A3003 RMK
                 CU3AC1CI2 SLP169 DENSITY ALT 1500FT =
2018-08-14 13:26 METAR CYHZ 141326Z 17011KT 15SM SCT011 BKN070 BKN260 23/20 A3003 RMK CU4AC1CI1
                 SLP172 DENSITY ALT 1400FT =
2018-08-14 13:00 METAR CYHZ 141300Z 17008KT 15SM BKN006 BKN068 BKN300 22/20 A3003 RMK CU5AC1CC1
                 SLP172 DENSITY ALT 1300FT =
2018-08-14 12:21 METAR CYHZ 141221Z 16007KT 15SM BKN004 OVC150 21/20 A3004 RMK SF6AC2 SLP175
                 DENSITY ALT 1100FT =
2018-08-14 12:00 METAR CYHZ 141200Z 14007KT 12SM SCT002 BKN150 20/20 A3004 RMK SF4AC2 SLP175
                 DENSITY ALT 1000FT =
2018-08-14 11:49 METAR CYHZ 141149Z 16005KT 12SM FEW001 SCT005 BKN150 20/19 A3005 RMK SF2SF2AC3
                 SLP177 DENSITY ALT 1000FT =
2018-08-14 11:26 METAR CYHZ 141126Z 15005KT 2SM R23/5000VP6000FT/U BR BKN002 BKN150 19/19 A3005
                 RMK SF5AC2 SLP176 DENSITY ALT 1000FT =
2018-08-14 11:16 METAR CYHZ 141116Z 15005KT 3/8SM R23/3000V5500FT/U R14/P6000FT/N FG BKN001
                 BKN150 19/19 A3004 RMK SF5AC2 SLP175 DENSITY ALT 1000FT =
2018-08-14 11:00 METAR CYHZ 141100Z 15006KT 1/4SM R23/3000V4500FT/U R14/P6000FT/U FG BKN001
                 BKN150 18/18 A3004 RMK SF5AC2 SLP175 DENSITY ALT 900FT =
2018-08-14 10:43 METAR CYHZ 141043Z 15005KT 1/4SM R23/3000FT/N R14/6000FT/D FG BKN001 18/18 A3005
                 RMK SF6 SLP177 DENSITY ALT 800FT =
2018-08-14 10:18 METAR CYHZ 141018Z 16006KT 1/4SM R23/3000FT/N R14/2000FT/N FG VV006 18/18 A3005
                 RMK FG8 SUN DIMLY VSBL SLP176 DENSITY ALT 800FT =
2018-08-14 10:00 METAR CYHZ 141000Z 14005KT 1/4SM R23/2800V4500FT/N R14/3000VP6000FT/U FG BKN150
                 17/17 A3004 RMK FG2AC4 SLP175 DENSITY ALT 800FT =
2018-08-14 09:43 METAR CYHZ 140943Z 14005KT 1/4SM R23/2400FT/N R14/3500V6000FT/D FG BKN150 17/17
                 A3004 RMK FG2AC5 SLP175 DENSITY ALT 800FT =
2018-08-14 09:30 METAR CYHZ 140930Z 14007KT 1/8SM R23/2400FT/N R14/4000VP6000FT/D FG BKN150 17/17
                 A3005 RMK FG4AC3 SLP176 DENSITY ALT 800FT =
2018-08-14 09:11 METAR CYHZ 140911Z 13007KT 5/8SM R23/4000V6000FT/D R14/P6000FT/D BR BKN150 17/17
                 A3005 RMK FG3AC4 SLP176 DENSITY ALT 700FT =
2018-08-14 09:00 METAR CYHZ 140900Z 12007KT 1SM R23/P6000FT/D R14/P6000FT/N BR BKN150 17/17 A3005
                 RMK FG1AC6 SLP176 DENSITY ALT 700FT =
2018-08-14 08:52 METAR CYHZ 140852Z 13007KT 1 3/4SM BR BKN150 17/17 A3005 RMK AC6 SLP177 DENSITY
                 ALT 700FT =
2018-08-14 08:00 METAR CYHZ 140800Z 14006KT 15SM FEW150 SCT240 17/17 A3006 RMK AC1CI2 SLP180
                 DENSITY ALT 700FT =
2018-08-14 07:00 METAR CYHZ 140700Z 12004KT 15SM FEW010 FEW150 SCT240 17/17 A3006 RMK SF1AC2CI2
                 SF TR SLP180 DENSITY ALT 700FT =
2018-08-14 06:00 METAR CYHZ 140600Z 18005KT 15SM FEW010 FEW150 FEW240 17/17 A3006 RMK SF1AC1CI1
                 SF TR CI TR SLP180 DENSITY ALT 700FT =
2018-08-14 05:00 METAR CYHZ 140500Z 21004KT 15SM FEW280 17/17 A3007 RMK CI1 CI TR SLP183 DENSITY
                 ALT 700FT =

Support USWX by starting your Amazon purchase here.